Data for 09/21/2009

Time Sea-Level Adjusted Pressure Absolute Pressure Temperature Relative Humidity Dew Point   
(mb) (inHg) (mb) (inHg) (C) (F) (%) (C) (F)
00:05 1029 30.39 858 25.34 5.2 41.3 78 1.7 35
00:10 1029 30.39 858 25.34 4.9 40.9 78 1.5 34.7
00:15 1029 30.39 858 25.34 4.9 40.7 79 1.4 34.6
00:20 1029 30.39 858 25.34 4.8 40.7 78 1.4 34.5
00:25 1029 30.39 858 25.34 4.8 40.7 78 1.3 34.4
00:30 1029 30.39 858 25.34 4.8 40.6 79 1.5 34.7
00:35 1029 30.39 858 25.34 4.6 40.2 80 1.4 34.5
00:40 1029 30.39 858 25.34 4.6 40.3 79 1.3 34.3
00:45 1029 30.39 858 25.34 4.8 40.7 78 1.3 34.3
00:50 1029 30.39 858 25.34 5 41 77 1.3 34.4
00:55 1029 30.39 858 25.34 5 40.9 77 1.4 34.4
01:00 1029 30.39 858 25.34 4.8 40.7 78 1.3 34.4
01:05 1029 30.39 858 25.34 4.4 40 80 1.3 34.3
01:10 1029 30.39 858 25.34 4.2 39.6 80 1 33.9
01:15 1029 30.39 858 25.34 4.1 39.4 80 1 33.8
01:20 1029 30.39 858 25.34 4 39.2 80 0.9 33.5
01:25 1029 30.39 858 25.34 3.9 39.1 80 0.8 33.5
01:30 1029 30.39 858 25.34 3.9 39.1 79 0.6 33.1
01:35 1029 30.39 858 25.34 4.1 39.4 78 0.6 33.1
01:40 1029 30.39 858 25.34 4 39.2 80 0.8 33.4
01:45 1029 30.39 858 25.34 4 39.2 79 0.7 33.3
01:50 1029 30.39 858 25.34 4.2 39.5 78 0.8 33.4
01:55 1029 30.39 858 25.34 4.1 39.4 79 0.9 33.6
02:00 1029 30.39 858 25.34 4 39.2 81 1 33.7
02:05 1029 30.39 858 25.34 4 39.2 80 0.9 33.7
02:10 1029 30.39 858 25.34 4.2 39.5 80 1.1 33.9
02:15 1029 30.39 858 25.34 4.1 39.5 80 1 33.8
02:20 1029 30.39 858 25.34 4.1 39.3 81 1 33.9
02:25 1029 30.39 858 25.34 4 39.3 81 1.1 34.1
02:30 1029 30.39 859 25.37 3.8 38.9 82 1 33.7
02:35 1029 30.39 859 25.37 3.8 38.8 83 1.1 34
02:40 1030 30.42 859 25.37 3.7 38.6 84 1.1 34.1
02:45 1030 30.42 859 25.37 3.6 38.4 84 1 33.9
02:50 1030 30.42 859 25.37 3.5 38.3 83 0.9 33.6
02:55 1030 30.42 859 25.37 3.7 38.7 83 1 33.9
03:00 1030 30.42 859 25.37 3.6 38.4 83 0.9 33.6
03:05 1030 30.42 859 25.37 3.7 38.7 81 0.8 33.5
03:10 1030 30.42 859 25.37 4 39.2 79 0.7 33.2
03:15 1030 30.42 859 25.37 4.1 39.5 79 0.8 33.4
03:20 1030 30.42 859 25.37 4 39.2 80 0.8 33.5
03:25 1030 30.42 859 25.37 3.9 39 80 0.8 33.5
03:30 1030 30.42 859 25.37 3.8 38.8 81 0.9 33.6
03:35 1030 30.42 859 25.37 3.9 39 80 0.7 33.3
03:40 1030 30.42 859 25.37 3.8 38.9 81 0.9 33.6
03:45 1030 30.42 859 25.37 3.7 38.6 81 0.7 33.3
03:50 1030 30.42 859 25.37 3.8 38.9 80 0.7 33.3
03:55 1030 30.42 859 25.37 3.8 38.9 81 0.8 33.4
04:00 1030 30.42 859 25.37 3.7 38.6 82 0.9 33.6
04:05 1030 30.42 859 25.37 3.5 38.4 82 0.7 33.3
04:10 1030 30.42 859 25.37 3.6 38.6 81 0.6 33.1
04:15 1030 30.42 859 25.37 3.7 38.7 81 0.8 33.4
04:20 1030 30.42 859 25.37 3.7 38.7 80 0.7 33.2
04:25 1030 30.42 859 25.37 3.7 38.7 81 0.8 33.4
04:30 1030 30.42 859 25.37 4 39.1 78 0.4 32.8
04:35 1030 30.42 859 25.37 4.2 39.6 77 0.6 33.1
04:40 1030 30.42 859 25.37 4.3 39.7 76 0.3 32.6
04:45 1030 30.42 859 25.37 4.6 40.2 73 0.2 32.4
04:50 1030 30.42 859 25.37 4.6 40.3 73 0.3 32.5
04:55 1029 30.39 859 25.37 4.5 40.2 74 0.3 32.5
05:00 1029 30.39 859 25.37 4.3 39.7 75 0.3 32.5
05:05 1030 30.42 859 25.37 4 39.2 78 0.5 32.8
05:10 1030 30.42 859 25.37 3.4 38.2 80 0.4 32.7
05:15 1030 30.42 859 25.37 3.4 38 80 0.3 32.5
05:20 1030 30.42 859 25.37 3.3 38 79 0.1 32.1
05:25 1030 30.42 859 25.37 3.2 37.8 81 0.3 32.5
05:30 1030 30.42 859 25.37 2.9 37.2 82 0.2 32.3
05:35 1030 30.42 859 25.37 3.2 37.7 79 -0.1 31.8
05:40 1030 30.42 859 25.37 3.4 38 78 -0.2 31.7
05:45 1030 30.42 859 25.37 3.1 37.6 80 -0 32
05:50 1030 30.42 859 25.37 2.5 36.6 83 -0.1 31.9
05:55 1030 30.42 859 25.37 2.4 36.4 84 -0 31.9
06:00 1030 30.42 859 25.37 2.5 36.5 83 -0 31.9
06:05 1030 30.42 859 25.37 2.5 36.5 83 -0.1 31.8
06:10 1030 30.42 859 25.37 2.3 36.1 84 -0.1 31.8
06:15 1030 30.42 859 25.37 1.9 35.5 86 -0.2 31.6
06:20 1030 30.42 859 25.37 1.7 35.1 86 -0.3 31.5
06:25 1030 30.42 860 25.4 1.8 35.2 86 -0.3 31.4
06:30 1030 30.42 860 25.4 1.9 35.4 85 -0.3 31.4
06:35 1030 30.42 860 25.4 2 35.6 84 -0.4 31.3
06:40 1030 30.42 860 25.4 2.1 35.8 83 -0.4 31.2
06:45 1030 30.42 860 25.4 2.1 35.8 83 -0.5 31.1
06:50 1030 30.42 860 25.4 2.2 36 82 -0.5 31.1
06:55 1030 30.42 860 25.4 2.5 36.6 79 -0.7 30.8
07:00 1031 30.45 860 25.4 2.7 36.8 80 -0.5 31
07:05 1031 30.45 860 25.4 2.3 36.2 82 -0.4 31.3
07:10 1031 30.45 860 25.4 1.7 35.1 84 -0.7 30.7
07:15 1031 30.45 860 25.4 2 35.6 81 -0.9 30.3
07:20 1031 30.45 860 25.4 2.2 36 79 -1 30.2
07:25 1031 30.45 860 25.4 2.3 36.1 80 -0.8 30.5
07:30 1031 30.45 860 25.4 1.8 35.2 83 -0.9 30.4
07:35 1031 30.45 860 25.4 1.5 34.6 82 -1.3 29.6
07:40 1031 30.45 860 25.4 1.7 35.1 80 -1.3 29.6
07:45 1031 30.45 860 25.4 1.8 35.2 80 -1.3 29.7
07:50 1031 30.45 860 25.4 2 35.6 77 -1.6 29.1
07:55 1031 30.45 860 25.4 2.4 36.4 76 -1.4 29.5
08:00 1031 30.45 860 25.4 2.6 36.7 74 -1.6 29.1
08:05 1031 30.45 860 25.4 2.9 37.3 75 -1.1 30.1
08:10 1031 30.45 860 25.4 3.1 37.6 74 -1.1 30
08:15 1031 30.45 860 25.4 3.3 38 75 -0.7 30.7
08:20 1031 30.45 860 25.4 3.2 37.8 75 -0.8 30.6
08:25 1031 30.45 860 25.4 3.5 38.3 75 -0.6 31
08:30 1031 30.45 860 25.4 4 39.1 73 -0.5 31.1
08:35 1031 30.45 860 25.4 4.2 39.5 72 -0.4 31.2
08:40 1031 30.45 860 25.4 4.5 40.1 70 -0.4 31.2
08:45 1031 30.45 860 25.4 4.9 40.8 67 -0.6 30.9
08:50 1031 30.45 860 25.4 5.3 41.6 66 -0.6 31
08:55 1031 30.45 860 25.4 5.5 41.9 65 -0.6 30.9
09:00 1031 30.45 860 25.4 5.9 42.6 63 -0.7 30.8
09:05 1031 30.45 860 25.4 6.3 43.3 62 -0.4 31.4
09:10 1031 30.45 860 25.4 6.7 44.1 61 -0.3 31.4
09:15 1031 30.45 860 25.4 7.2 44.9 58 -0.4 31.2
09:20 1031 30.45 860 25.4 7.4 45.4 59 0 32.1
09:25 1031 30.45 860 25.4 8.1 46.6 56 -0 31.9
09:30 1031 30.45 860 25.4 8.2 46.8 57 0.2 32.3
09:35 1031 30.45 860 25.4 8.7 47.7 55 0.3 32.5
09:40 1031 30.45 860 25.4 9.4 49 52 -0 32
09:45 1031 30.45 860 25.4 9.3 48.7 51 -0.4 31.3
09:50 1031 30.45 860 25.4 9.3 48.7 49 -0.7 30.7
09:55 1031 30.45 860 25.4 9.6 49.3 47 -1.1 30.1
10:00 1031 30.45 860 25.4 9.9 49.8 47 -0.7 30.7
10:05 1031 30.45 860 25.4 9.7 49.5 47 -1 30.2
10:10 1031 30.45 860 25.4 9.5 49.1 46 -1.6 29.2
10:15 1031 30.45 860 25.4 10.3 50.5 44 -1.5 29.3
10:20 1031 30.45 860 25.4 10.8 51.5 42 -1.4 29.4
10:25 1031 30.45 860 25.4 11 51.7 43 -1.1 29.9
10:30 1031 30.45 860 25.4 10.5 50.9 46 -0.6 31
10:35 1031 30.45 860 25.4 10.1 50.3 44 -1.4 29.5
10:40 1031 30.45 860 25.4 10.5 50.9 42 -1.8 28.8
10:45 1031 30.45 860 25.4 10.2 50.4 45 -1.1 30.1
10:50 1031 30.45 860 25.4 9.9 49.9 43 -1.9 28.5
10:55 1031 30.45 860 25.4 10.4 50.7 41 -2.2 28.1
11:00 1031 30.45 860 25.4 11.2 52.2 40 -1.7 28.9
11:05 1031 30.45 860 25.4 11.3 52.3 42 -1 30.2
11:10 1031 30.45 860 25.4 10.7 51.3 43 -1.4 29.4
11:15 1031 30.45 860 25.4 10.5 50.8 43 -1.7 29
11:20 1031 30.45 860 25.4 10.5 50.9 43 -1.4 29.5
11:25 1031 30.45 860 25.4 11.3 52.3 41 -1.3 29.7
11:30 1031 30.45 860 25.4 11.3 52.3 43 -0.9 30.4
11:35 1031 30.45 860 25.4 10.8 51.4 43 -1.2 29.8
11:40 1031 30.45 860 25.4 11.5 52.7 37 -2.6 27.2
11:45 1031 30.45 860 25.4 12.7 54.9 36 -1.9 28.5
11:50 1031 30.45 860 25.4 12.3 54.1 36 -2.4 27.6
11:55 1031 30.45 860 25.4 11.5 52.7 40 -1.7 29
12:00 1031 30.45 860 25.4 11.4 52.5 38 -2.5 27.4
12:05 1031 30.45 860 25.4 11.9 53.4 36 -2.7 27.2
12:10 1031 30.45 860 25.4 12.8 55.1 34 -2.7 27.1
12:15 1031 30.45 860 25.4 13.2 55.7 33 -2.9 26.9
12:20 1031 30.45 860 25.4 13.7 56.6 30 -3.4 25.8
12:25 1030 30.42 860 25.4 13.2 55.8 31 -3.6 25.5
12:30 1030 30.42 860 25.4 12.8 55.1 30 -4.3 24.2
12:35 1030 30.42 860 25.4 13.1 55.6 30 -4.1 24.6
12:40 1030 30.42 859 25.37 13.1 55.5 31 -3.6 25.5
12:45 1030 30.42 859 25.37 12.6 54.6 33 -3.4 25.9
12:50 1030 30.42 859 25.37 13.1 55.5 30 -4.1 24.6
12:55 1030 30.42 859 25.37 13.7 56.6 29 -4 24.8
13:00 1030 30.42 859 25.37 12.8 55.1 31 -3.9 24.9
13:05 1030 30.42 859 25.37 13.3 55.9 30 -3.7 25.4
13:10 1030 30.42 859 25.37 13.7 56.6 29 -3.9 25
13:15 1030 30.42 859 25.37 13.7 56.7 29 -3.9 25
13:20 1030 30.42 859 25.37 13.3 56 31 -3.5 25.7
13:25 1030 30.42 859 25.37 13.3 55.9 31 -3.4 25.9
13:30 1030 30.42 859 25.37 13.6 56.4 28 -4.3 24.2
13:35 1030 30.42 859 25.37 13.9 56.9 29 -3.6 25.5
13:40 1030 30.42 859 25.37 13.9 57 29 -3.7 25.3
13:45 1030 30.42 859 25.37 14.1 57.4 28 -3.8 25.1
13:50 1030 30.42 859 25.37 13.5 56.2 29 -4.2 24.5
13:55 1030 30.42 859 25.37 14 57.1 29 -3.9 25
14:00 1030 30.42 859 25.37 13.7 56.7 29 -3.9 25.1
14:05 1029 30.39 859 25.37 14 57.3 29 -3.7 25.3
14:10 1029 30.39 859 25.37 14.8 58.6 27 -4.1 24.7
14:15 1029 30.39 858 25.34 15.5 59.9 26 -3.8 25.2
14:20 1029 30.39 858 25.34 15.3 59.6 25 -4.3 24.3
14:25 1029 30.39 858 25.34 15.8 60.4 25 -3.9 25
14:30 1029 30.39 858 25.34 15.9 60.5 25 -4.1 24.6
14:35 1029 30.39 858 25.34 15.8 60.5 26 -3.7 25.3
14:40 1029 30.39 858 25.34 15.4 59.8 27 -3.5 25.8
14:45 1029 30.39 858 25.34 15.1 59.2 25 -4.4 24
14:50 1029 30.39 858 25.34 15.9 60.6 25 -4.2 24.4
14:55 1029 30.39 858 25.34 15.1 59.2 27 -3.8 25.1
15:00 1029 30.39 858 25.34 15.8 60.5 25 -4.1 24.7
15:05 1029 30.39 858 25.34 16.2 61.1 23 -4.7 23.6
15:10 1029 30.39 858 25.34 16.5 61.7 23 -4.7 23.6
15:15 1029 30.39 858 25.34 16.1 61 24 -4.2 24.5
15:20 1029 30.39 858 25.34 15.4 59.7 27 -3.6 25.5
15:25 1029 30.39 858 25.34 15.7 60.2 26 -3.8 25.1
15:30 1029 30.39 858 25.34 16.1 60.9 24 -4.2 24.4
15:35 1029 30.39 858 25.34 16.5 61.6 23 -4.7 23.6
15:40 1029 30.39 858 25.34 15.8 60.4 24 -4.9 23.2
15:45 1028 30.36 858 25.34 16.1 61 23 -4.8 23.4
15:50 1028 30.36 858 25.34 15.9 60.5 24 -4.7 23.6
15:55 1028 30.36 858 25.34 16.7 62.1 22 -4.8 23.4
16:00 1028 30.36 858 25.34 16.2 61.2 23 -5 23.1
16:05 1028 30.36 857 25.31 16.1 61 22 -5.3 22.4
16:10 1028 30.36 857 25.31 15.9 60.7 22 -5.7 21.7
16:15 1028 30.36 857 25.31 16.2 61.1 23 -5.1 22.8
16:20 1028 30.36 857 25.31 16.2 61.2 23 -4.8 23.3
16:25 1028 30.36 857 25.31 15.8 60.5 23 -5.4 22.3
16:30 1028 30.36 857 25.31 16.6 61.8 20 -6.3 20.7
16:35 1028 30.36 857 25.31 16.8 62.2 21 -5.6 22
16:40 1028 30.36 857 25.31 16.7 62.1 22 -4.8 23.3
16:45 1028 30.36 857 25.31 17 62.7 22 -4.9 23.1
16:50 1028 30.36 857 25.31 17 62.6 21 -5.4 22.4
16:55 1028 30.36 857 25.31 17.2 62.9 20 -5.9 21.5
17:00 1028 30.36 857 25.31 16.9 62.3 22 -4.9 23.2
17:05 1028 30.36 857 25.31 16.7 62 21 -5.6 21.9
17:10 1028 30.36 857 25.31 17 62.7 21 -5.5 22.1
17:15 1028 30.36 857 25.31 17.1 62.8 21 -5.2 22.6
17:20 1028 30.36 857 25.31 17.3 63.1 20 -6.1 21.1
17:25 1028 30.36 857 25.31 17.3 63.1 19 -6.8 19.8
17:30 1028 30.36 857 25.31 17.3 63.2 18 -7.1 19.3
17:35 1027 30.33 857 25.31 16.6 61.9 20 -6.5 20.3
17:40 1027 30.33 857 25.31 16.9 62.3 21 -5.6 21.9
17:45 1027 30.33 857 25.31 17.3 63.2 20 -5.8 21.6
17:50 1027 30.33 857 25.31 17.2 62.9 20 -5.8 21.6
17:55 1027 30.33 857 25.31 17.3 63.2 19 -6.2 20.8
18:00 1027 30.33 856 25.28 17 62.5 20 -5.8 21.5
18:05 1027 30.33 856 25.28 16.6 61.9 21 -5.8 21.6
18:10 1027 30.33 856 25.28 16.7 62.1 21 -5.8 21.5
18:15 1027 30.33 856 25.28 16.3 61.3 21 -5.8 21.5
18:20 1027 30.33 857 25.31 16.3 61.3 19 -7.2 19.1
18:25 1027 30.33 856 25.28 15.9 60.7 21 -6.3 20.6
18:30 1027 30.33 856 25.28 15.6 60.1 24 -5 23.1
18:35 1027 30.33 856 25.28 14.8 58.7 25 -4.9 23.2
18:40 1027 30.33 856 25.28 14.3 57.8 26 -5.1 22.9
18:45 1027 30.33 856 25.28 14.2 57.6 26 -5 23
18:50 1027 30.33 856 25.28 14.3 57.8 27 -4.5 23.9
18:55 1027 30.33 856 25.28 14.2 57.6 26 -5.1 22.7
19:00 1027 30.33 856 25.28 14.2 57.6 27 -4.7 23.6
19:05 1027 30.33 856 25.28 14.2 57.5 26 -4.9 23.1
19:10 1027 30.33 856 25.28 13.9 57 27 -5 23
19:15 1027 30.33 856 25.28 13.7 56.6 26 -5.4 22.2
19:20 1027 30.33 856 25.28 13.5 56.3 27 -5 23
19:25 1027 30.33 856 25.28 13.3 56 28 -4.8 23.4
19:30 1027 30.33 856 25.28 13.2 55.8 28 -4.9 23.2
19:35 1027 30.33 856 25.28 13.1 55.6 33 -2.7 27.1
19:40 1027 30.33 856 25.28 12.3 54.1 40 -0.8 30.6
19:45 1027 30.33 856 25.28 11.5 52.8 41 -1.3 29.6
19:50 1027 30.33 856 25.28 11.2 52.1 40 -1.9 28.5
19:55 1027 30.33 856 25.28 10.9 51.7 39 -2.4 27.7
20:00 1027 30.33 856 25.28 10.7 51.3 40 -2.4 27.6
20:05 1027 30.33 856 25.28 10.4 50.7 40 -2.5 27.5
20:10 1027 30.33 856 25.28 10.3 50.5 39 -3 26.6
20:15 1027 30.33 856 25.28 9.9 49.9 41 -2.8 27
20:20 1027 30.33 856 25.28 9.6 49.3 42 -2.7 27.2
20:25 1027 30.33 856 25.28 9.6 49.2 42 -2.8 26.9
20:30 1027 30.33 856 25.28 9.3 48.7 44 -2.4 27.7
20:35 1027 30.33 857 25.31 8.9 47.9 47 -1.9 28.5
20:40 1027 30.33 857 25.31 8.5 47.4 47 -2.2 28
20:45 1027 30.33 857 25.31 8.2 46.7 48 -2.2 28
20:50 1027 30.33 857 25.31 8.1 46.6 45 -3 26.6
20:55 1027 30.33 857 25.31 8.4 47.1 41 -4.2 24.5
21:00 1027 30.33 857 25.31 8.9 48 38 -4.6 23.8
21:05 1028 30.36 857 25.31 9.2 48.5 36 -5.1 22.9
21:10 1028 30.36 857 25.31 9.4 48.8 37 -4.6 23.7
21:15 1028 30.36 857 25.31 9.2 48.5 38 -4.4 24.1
21:20 1028 30.36 857 25.31 9 48.1 40 -4 24.8
21:25 1028 30.36 857 25.31 8.7 47.7 40 -4 24.8
21:30 1028 30.36 857 25.31 8.2 46.7 42 -3.9 25
21:35 1028 30.36 857 25.31 8.1 46.6 40 -4.5 23.8
21:40 1028 30.36 857 25.31 8.2 46.8 41 -4.3 24.2
21:45 1028 30.36 857 25.31 8.2 46.7 41 -4.3 24.2
21:50 1028 30.36 857 25.31 8.1 46.5 40 -4.7 23.6
21:55 1028 30.36 857 25.31 8.3 46.9 39 -4.8 23.4
22:00 1028 30.36 857 25.31 8.4 47.1 40 -4.4 24
22:05 1028 30.36 857 25.31 8.5 47.4 37 -5.2 22.7
22:10 1028 30.36 857 25.31 8.7 47.6 39 -4.4 24.2
22:15 1028 30.36 857 25.31 8.3 46.9 40 -4.4 24.1
22:20 1028 30.36 857 25.31 8.2 46.7 42 -4.1 24.7
22:25 1028 30.36 857 25.31 8 46.3 41 -4.4 24.1
22:30 1028 30.36 857 25.31 7.9 46.2 42 -4.2 24.4
22:35 1028 30.36 857 25.31 7.7 45.9 43 -4.1 24.7
22:40 1028 30.36 857 25.31 7.5 45.6 43 -4.2 24.4
22:45 1028 30.36 857 25.31 7.6 45.6 42 -4.6 23.8
22:50 1028 30.36 857 25.31 7.5 45.6 42 -4.4 24.1
22:55 1028 30.36 857 25.31 7.5 45.5 42 -4.7 23.5
23:00 1028 30.36 857 25.31 7.8 46 41 -4.8 23.4
23:05 1028 30.36 857 25.31 7.8 46.1 41 -4.7 23.6
23:10 1028 30.36 857 25.31 7.9 46.2 41 -4.6 23.7
23:15 1028 30.36 857 25.31 7.8 46 42 -4.4 24.1
23:20 1028 30.36 858 25.34 7.6 45.7 42 -4.4 24.1
23:25 1028 30.36 858 25.34 7.7 45.8 42 -4.6 23.8
23:30 1028 30.36 858 25.34 7.7 45.9 41 -4.8 23.3
23:35 1028 30.36 857 25.31 7.7 45.9 41 -4.6 23.6
23:40 1028 30.36 857 25.31 7.8 46 41 -4.7 23.6
23:45 1028 30.36 857 25.31 7.6 45.7 42 -4.6 23.8
23:50 1028 30.36 858 25.34 7.5 45.4 42 -4.7 23.6
23:55 1028 30.36 858 25.34 7.6 45.6 42 -4.6 23.6
24:00 1028 30.36 858 25.34 7.6 45.7 41 -4.7 23.5